createdAt,value
2022-11-04T00:00:24.058Z,5.40
2022-11-04T00:02:55.096Z,6.00
2022-11-04T00:05:23.156Z,5.47
2022-11-04T00:08:10.150Z,6.15
2022-11-04T00:10:58.061Z,6.28
2022-11-04T00:13:26.041Z,4.90
2022-11-04T00:16:11.583Z,5.35
2022-11-04T00:18:39.737Z,5.10
2022-11-04T00:21:25.194Z,5.07
2022-11-04T00:24:12.061Z,5.17
2022-11-04T00:26:57.383Z,5.32
2022-11-04T00:29:25.486Z,5.43
2022-11-04T00:32:10.989Z,5.03
2022-11-04T00:34:38.978Z,5.50
2022-11-04T00:37:07.074Z,4.90
2022-11-04T00:39:36.484Z,5.40
2022-11-04T00:42:04.707Z,6.13
2022-11-04T00:44:32.859Z,5.75
2022-11-04T00:47:01.001Z,5.38
2022-11-04T00:49:29.488Z,6.38
2022-11-04T00:51:57.479Z,6.13
2022-11-04T00:54:25.490Z,6.03
2022-11-04T00:56:55.323Z,5.68
2022-11-04T00:59:23.370Z,6.38
2022-11-04T01:01:51.675Z,7.82
2022-11-04T01:04:19.894Z,6.07
2022-11-04T01:06:48.201Z,6.57
2022-11-04T01:09:16.201Z,6.70
2022-11-04T01:11:44.298Z,6.57
2022-11-04T01:14:13.807Z,7.15
2022-11-04T01:16:42.318Z,8.35
2022-11-04T01:19:10.855Z,7.45
2022-11-04T01:21:38.966Z,6.80
2022-11-04T01:24:08.029Z,6.75
2022-11-04T01:26:36.349Z,6.30
2022-11-04T01:29:04.408Z,5.78
2022-11-04T01:31:33.890Z,6.00
2022-11-04T01:34:02.105Z,6.30
2022-11-04T01:36:30.862Z,6.45
2022-11-04T01:38:59.157Z,6.85
2022-11-04T01:41:29.397Z,6.63
2022-11-04T01:43:59.889Z,7.20
2022-11-04T01:46:33.813Z,7.57
2022-11-04T01:49:11.110Z,7.63
2022-11-04T01:51:41.503Z,7.95
2022-11-04T01:54:12.059Z,8.57
2022-11-04T01:56:43.141Z,9.30
2022-11-04T01:59:16.474Z,9.73
2022-11-04T02:01:45.299Z,10.25
2022-11-04T02:04:27.328Z,10.18
2022-11-04T02:06:58.201Z,9.20
2022-11-04T02:09:28.943Z,10.25
2022-11-04T02:12:14.280Z,10.52
2022-11-04T02:14:42.863Z,10.13
2022-11-04T02:17:25.061Z,9.65
2022-11-04T02:20:20.861Z,9.93
2022-11-04T02:23:19.693Z,9.13
2022-11-04T02:26:10.762Z,11.23
2022-11-04T02:29:18.581Z,11.55
2022-11-04T02:31:55.005Z,9.98
2022-11-04T02:34:33.884Z,10.95
2022-11-04T02:37:10.559Z,10.55
2022-11-04T02:39:49.769Z,10.23
2022-11-04T02:42:26.218Z,9.85
2022-11-04T02:45:02.388Z,10.82
2022-11-04T02:47:33.608Z,10.75
2022-11-04T02:50:09.046Z,10.48
2022-11-04T02:52:50.214Z,12.20
2022-11-04T02:55:24.695Z,10.43
2022-11-04T02:57:56.268Z,10.27
2022-11-04T03:00:24.896Z,10.82
2022-11-04T03:02:58.525Z,10.85
2022-11-04T03:05:30.516Z,10.23
2022-11-04T03:08:05.622Z,9.75
2022-11-04T03:10:37.831Z,10.50
2022-11-04T03:13:12.885Z,11.52
2022-11-04T03:15:43.539Z,11.10
2022-11-04T03:18:22.685Z,10.02
2022-11-04T03:20:52.576Z,9.57
2022-11-04T03:23:20.860Z,10.02
2022-11-04T03:25:52.536Z,9.95
2022-11-04T03:28:28.713Z,10.45
2022-11-04T03:31:03.243Z,11.32
2022-11-04T03:33:42.144Z,11.73
2022-11-04T03:36:10.572Z,10.75
2022-11-04T03:38:39.276Z,11.18
2022-11-04T03:41:14.789Z,11.98
2022-11-04T03:43:43.333Z,12.55
2022-11-04T03:46:12.035Z,11.75
2022-11-04T03:48:42.281Z,13.02
2022-11-04T03:51:10.735Z,13.65
2022-11-04T03:53:38.942Z,13.45
2022-11-04T03:56:25.340Z,14.45
2022-11-04T03:59:05.589Z,12.90
2022-11-04T04:01:42.000Z,12.68
2022-11-04T04:04:18.169Z,12.93
2022-11-04T04:06:47.544Z,13.63
2022-11-04T04:09:21.229Z,13.07
2022-11-04T04:11:56.131Z,13.65
2022-11-04T04:14:41.402Z,12.05
2022-11-04T04:17:17.004Z,12.27
2022-11-04T04:19:52.022Z,12.63
2022-11-04T04:22:23.681Z,11.20
2022-11-04T04:25:12.784Z,11.57
2022-11-04T04:27:42.696Z,11.88
2022-11-04T04:30:13.843Z,12.55
2022-11-04T04:32:45.783Z,12.68
2022-11-04T04:35:33.275Z,13.32
2022-11-04T04:38:19.801Z,13.13
2022-11-04T04:41:10.522Z,12.93
2022-11-04T04:43:57.706Z,13.63
2022-11-04T04:46:26.187Z,12.00
2022-11-04T04:48:54.324Z,13.27
2022-11-04T04:51:24.899Z,14.18
2022-11-04T04:53:53.101Z,14.20
2022-11-04T04:56:21.330Z,14.43
2022-11-04T04:58:49.504Z,14.05
2022-11-04T05:01:17.834Z,14.27
2022-11-04T05:03:46.144Z,13.70
2022-11-04T05:06:14.248Z,13.65
2022-11-04T05:08:43.652Z,13.90
2022-11-04T05:11:12.353Z,14.02
2022-11-04T05:13:40.466Z,13.48
2022-11-04T05:16:10.596Z,14.88
2022-11-04T05:18:38.915Z,14.00
2022-11-04T05:21:07.949Z,13.75
2022-11-04T05:23:36.947Z,14.82
2022-11-04T05:26:06.759Z,15.38
2022-11-04T05:28:34.766Z,14.00
2022-11-04T05:31:05.191Z,15.73
2022-11-04T05:33:33.677Z,15.35
2022-11-04T05:36:08.041Z,14.60
2022-11-04T05:38:36.403Z,14.85
2022-11-04T05:41:06.740Z,15.23
2022-11-04T05:43:35.577Z,15.25
2022-11-04T05:46:03.994Z,15.07
2022-11-04T05:48:36.396Z,14.23
2022-11-04T05:51:08.300Z,15.00
2022-11-04T05:53:36.325Z,14.23
2022-11-04T05:56:06.069Z,15.30
2022-11-04T05:58:34.108Z,14.60
2022-11-04T06:01:25.323Z,14.38
2022-11-04T06:03:54.105Z,14.93
2022-11-04T06:06:23.064Z,14.68
2022-11-04T06:08:52.071Z,15.98
2022-11-04T06:11:22.914Z,15.32
2022-11-04T06:13:51.426Z,15.02
2022-11-04T06:16:19.452Z,13.50
2022-11-04T06:18:47.488Z,13.45
2022-11-04T06:21:26.303Z,13.32
2022-11-04T06:23:56.936Z,13.93
2022-11-04T06:26:28.515Z,14.68
2022-11-04T06:28:57.865Z,13.40
2022-11-04T06:31:25.889Z,15.68
2022-11-04T06:33:54.229Z,15.23
2022-11-04T06:36:22.299Z,14.68
2022-11-04T06:38:50.330Z,16.05
2022-11-04T06:41:18.783Z,13.93
2022-11-04T06:43:48.273Z,15.13
2022-11-04T06:46:27.940Z,14.15
2022-11-04T06:48:57.302Z,15.07
2022-11-04T06:51:26.222Z,15.20
2022-11-04T06:53:54.232Z,15.38
2022-11-04T06:56:22.409Z,14.18
2022-11-04T06:58:52.745Z,13.60
2022-11-04T07:01:22.953Z,13.43
2022-11-04T07:03:51.940Z,14.48
2022-11-04T07:06:21.258Z,13.63
2022-11-04T07:08:50.732Z,12.95
2022-11-04T07:11:19.760Z,12.10
2022-11-04T07:13:47.787Z,12.25
2022-11-04T07:16:18.420Z,12.82
2022-11-04T07:18:46.737Z,13.05
2022-11-04T07:21:14.814Z,12.65
2022-11-04T07:23:43.339Z,12.48
2022-11-04T07:26:12.999Z,12.50
2022-11-04T07:28:41.217Z,12.75
2022-11-04T07:31:11.686Z,12.25
2022-11-04T07:33:41.373Z,12.40
2022-11-04T07:36:13.759Z,12.40
2022-11-04T07:38:42.145Z,13.27
2022-11-04T07:41:10.533Z,13.32
2022-11-04T07:43:38.543Z,12.95
2022-11-04T07:46:08.463Z,11.55
2022-11-04T07:48:36.652Z,13.45
2022-11-04T07:51:08.602Z,12.07
2022-11-04T07:53:37.126Z,12.38
2022-11-04T07:56:06.727Z,13.02
2022-11-04T07:58:35.177Z,13.15
2022-11-04T08:01:04.719Z,13.32
2022-11-04T08:03:32.844Z,12.68
2022-11-04T08:06:02.381Z,13.82
2022-11-04T08:08:32.214Z,13.82
2022-11-04T08:11:02.274Z,11.93
2022-11-04T08:13:31.463Z,10.77
2022-11-04T08:16:03.709Z,12.88
2022-11-04T08:18:32.809Z,14.13
2022-11-04T08:21:02.405Z,11.98
2022-11-04T08:23:32.441Z,14.48
2022-11-04T08:26:00.778Z,11.20
2022-11-04T08:28:29.714Z,10.38
2022-11-04T08:31:00.042Z,10.57
2022-11-04T08:33:29.174Z,8.80
2022-11-04T08:36:01.148Z,6.97
2022-11-04T08:38:32.564Z,6.90
2022-11-04T08:41:02.647Z,6.10
2022-11-04T08:43:30.995Z,6.85
2022-11-04T08:45:59.304Z,6.72
2022-11-04T08:48:27.741Z,10.82
2022-11-04T08:50:58.877Z,6.75
2022-11-04T08:53:27.369Z,4.72
2022-11-04T08:55:57.117Z,4.60
2022-11-04T08:58:26.147Z,4.15
2022-11-04T09:00:54.095Z,4.40
2022-11-04T09:03:22.247Z,4.38
2022-11-04T09:05:50.763Z,5.18
2022-11-04T09:08:19.485Z,5.32
2022-11-04T09:10:49.302Z,6.00
2022-11-04T09:13:19.189Z,5.57
2022-11-04T09:15:49.121Z,6.57
2022-11-04T09:18:17.304Z,6.55
2022-11-04T09:20:45.254Z,6.97
2022-11-04T09:23:13.336Z,6.47
2022-11-04T09:25:41.385Z,8.98
2022-11-04T09:28:09.359Z,13.45
2022-11-04T09:30:39.340Z,11.07
2022-11-04T09:33:07.697Z,8.75
2022-11-04T09:35:36.137Z,6.63
2022-11-04T09:38:04.942Z,6.20
2022-11-04T09:40:36.348Z,6.40
2022-11-04T09:43:16.091Z,8.20
2022-11-04T09:45:46.112Z,7.57
2022-11-04T09:48:22.744Z,7.30
2022-11-04T09:50:55.389Z,8.63
2022-11-04T09:53:28.009Z,7.60
2022-11-04T09:55:58.589Z,8.00
2022-11-04T09:58:27.266Z,6.63
2022-11-04T10:01:07.941Z,7.45
2022-11-04T10:03:49.646Z,9.40
2022-11-04T10:06:31.688Z,8.48
2022-11-04T10:09:21.320Z,8.65
2022-11-04T10:11:58.946Z,9.30
2022-11-04T10:14:46.670Z,9.02
2022-11-04T10:17:38.629Z,8.30
2022-11-04T10:20:22.160Z,7.20
2022-11-04T10:22:58.576Z,8.65
2022-11-04T10:25:34.454Z,7.57
2022-11-04T10:30:32.105Z,7.47
2022-11-04T10:33:09.818Z,6.40
2022-11-04T10:35:42.056Z,6.07
2022-11-04T10:38:19.414Z,5.93
2022-11-04T10:40:50.301Z,6.15
2022-11-04T10:43:24.891Z,6.80
2022-11-04T10:46:04.790Z,5.30
2022-11-04T10:48:41.792Z,5.95
2022-11-04T10:51:10.007Z,5.90
2022-11-04T10:53:38.093Z,4.90
2022-11-04T10:56:13.046Z,4.38
2022-11-04T10:58:45.195Z,3.50
2022-11-04T11:01:29.543Z,3.53
2022-11-04T11:04:00.806Z,3.78
2022-11-04T11:06:30.749Z,4.90
2022-11-04T11:09:01.047Z,5.38
2022-11-04T11:11:41.959Z,5.78
2022-11-04T11:14:21.341Z,5.78
2022-11-04T11:16:49.421Z,6.70
2022-11-04T11:19:20.947Z,6.88
2022-11-04T11:21:51.487Z,4.03
2022-11-04T11:24:24.513Z,3.97
2022-11-04T11:26:54.940Z,5.53
2022-11-04T11:29:26.059Z,10.07
2022-11-04T11:31:55.626Z,8.38
2022-11-04T11:34:28.041Z,7.75
2022-11-04T11:36:57.604Z,6.97
2022-11-04T11:39:28.168Z,4.57
2022-11-04T11:42:02.395Z,3.95
2022-11-04T11:44:34.121Z,20.58
2022-11-04T11:47:05.099Z,5.43
2022-11-04T11:49:36.782Z,7.28
2022-11-04T11:52:33.322Z,11.27
2022-11-04T11:55:07.833Z,15.95
2022-11-04T11:57:45.188Z,17.75
2022-11-04T12:03:16.845Z,13.52
2022-11-04T12:12:05.321Z,6.82
2022-11-04T12:14:49.160Z,11.90
2022-11-04T12:17:30.447Z,3.88
2022-11-04T12:20:14.977Z,4.20
2022-11-04T12:22:56.023Z,3.90
2022-11-04T12:25:30.945Z,3.42
2022-11-04T12:28:09.028Z,2.40
2022-11-04T12:30:46.975Z,2.42
2022-11-04T12:33:27.600Z,2.80
2022-11-04T12:36:16.517Z,4.47
2022-11-04T12:39:03.384Z,4.32
2022-11-04T12:42:06.743Z,4.57
2022-11-04T12:44:35.524Z,4.05
2022-11-04T12:47:18.003Z,22.58
2022-11-04T12:50:02.561Z,9.02
2022-11-04T12:52:51.870Z,13.88
2022-11-04T12:55:32.649Z,4.10
2022-11-04T12:58:07.874Z,3.75
2022-11-04T13:00:39.054Z,1.90
2022-11-04T13:03:14.933Z,2.15
2022-11-04T13:05:49.565Z,2.20
2022-11-04T13:08:25.436Z,2.38
2022-11-04T13:13:29.989Z,1.83
2022-11-04T13:16:02.482Z,2.25
2022-11-04T13:18:36.197Z,2.38
2022-11-04T13:21:08.308Z,2.55
2022-11-04T13:23:41.590Z,2.00
2022-11-04T13:26:15.778Z,2.38
2022-11-04T13:28:45.440Z,2.60
2022-11-04T13:31:22.296Z,2.70
2022-11-04T13:33:56.934Z,2.45
2022-11-04T13:36:35.891Z,2.40
2022-11-04T13:39:13.669Z,2.17
2022-11-04T13:42:14.124Z,2.55
2022-11-04T13:44:46.326Z,2.40
2022-11-04T13:47:21.972Z,2.03
2022-11-04T13:49:52.476Z,2.25
2022-11-04T13:52:20.765Z,3.00
2022-11-04T13:54:57.248Z,2.97
2022-11-04T13:57:30.094Z,3.03
2022-11-04T14:00:20.108Z,2.47
2022-11-04T14:02:49.860Z,2.42
2022-11-04T14:05:46.759Z,2.40
2022-11-04T14:08:16.105Z,2.15
2022-11-04T14:10:46.983Z,2.28
2022-11-04T14:13:52.598Z,2.38
2022-11-04T14:16:44.097Z,2.30
2022-11-04T14:19:57.735Z,2.38
2022-11-04T14:22:33.880Z,2.95
2022-11-04T14:25:04.861Z,7.22
2022-11-04T14:27:40.791Z,9.30
2022-11-04T14:30:29.764Z,7.53
2022-11-04T14:33:03.689Z,4.10
2022-11-04T14:35:32.845Z,5.97
2022-11-04T14:38:07.991Z,3.80
2022-11-04T14:41:11.997Z,3.28
2022-11-04T14:43:43.854Z,3.22
2022-11-04T14:46:14.021Z,3.28
2022-11-04T14:48:51.991Z,3.63
2022-11-04T14:51:26.428Z,3.83
2022-11-04T14:54:00.535Z,3.63
2022-11-04T14:56:28.785Z,4.38
2022-11-04T14:58:59.180Z,3.90
2022-11-04T15:01:34.681Z,4.53
2022-11-04T15:04:15.845Z,4.22
2022-11-04T15:06:59.459Z,4.60
2022-11-04T15:09:30.478Z,4.97
2022-11-04T15:12:23.512Z,4.78
2022-11-04T15:14:52.400Z,5.40
2022-11-04T15:17:22.659Z,6.70
2022-11-04T15:19:54.823Z,11.00
2022-11-04T15:22:23.363Z,10.07
2022-11-04T15:24:52.003Z,10.10
2022-11-04T15:27:24.992Z,8.27
2022-11-04T15:29:57.238Z,7.70
2022-11-04T15:32:26.286Z,6.60
2022-11-04T15:34:57.660Z,7.25
2022-11-04T15:37:28.851Z,6.47
2022-11-04T15:39:59.414Z,7.57
2022-11-04T15:42:44.763Z,7.40
2022-11-04T15:45:31.411Z,9.13
2022-11-04T15:48:29.463Z,10.13
2022-11-04T15:51:13.563Z,8.02
2022-11-04T15:53:51.009Z,8.18
2022-11-04T15:56:22.357Z,22.50
2022-11-04T15:58:51.307Z,15.50
2022-11-04T16:01:20.907Z,12.05
2022-11-04T16:03:51.798Z,7.90
2022-11-04T16:06:34.737Z,6.43
2022-11-04T16:09:05.821Z,6.63
2022-11-04T16:11:33.984Z,6.82
2022-11-04T16:14:23.800Z,18.98
2022-11-04T16:16:54.475Z,11.20
2022-11-04T16:19:25.706Z,9.80
2022-11-04T16:22:02.828Z,8.15
2022-11-04T16:24:33.392Z,10.00
2022-11-04T16:27:02.268Z,8.65
2022-11-04T16:29:32.427Z,8.35
2022-11-04T16:32:17.144Z,7.55
2022-11-04T16:34:45.833Z,7.22
2022-11-04T16:37:15.281Z,6.47
2022-11-04T16:39:45.754Z,5.60
2022-11-04T16:42:15.228Z,6.38
2022-11-04T16:44:49.538Z,6.20
2022-11-04T16:47:19.846Z,9.27
2022-11-04T16:49:48.190Z,7.40
2022-11-04T16:52:25.526Z,7.40
2022-11-04T16:54:56.204Z,6.75
2022-11-04T16:57:25.517Z,6.57
2022-11-04T16:59:54.603Z,6.40
2022-11-04T17:02:26.983Z,6.75
2022-11-04T17:04:55.482Z,6.88
2022-11-04T17:07:40.554Z,7.50
2022-11-04T17:10:17.228Z,8.43
2022-11-04T17:12:45.798Z,8.23
2022-11-04T17:15:15.150Z,8.20
2022-11-04T17:17:43.483Z,7.18
2022-11-04T17:20:14.916Z,9.30
2022-11-04T17:22:45.198Z,7.13
2022-11-04T17:25:18.180Z,6.38
2022-11-04T17:27:46.421Z,6.97
2022-11-04T17:30:16.444Z,7.22
2022-11-04T17:32:45.052Z,6.35
2022-11-04T17:35:13.918Z,5.32
2022-11-04T17:37:42.557Z,5.93
2022-11-04T17:40:15.701Z,6.95
2022-11-04T17:43:04.407Z,4.90
2022-11-04T17:45:36.535Z,6.15
2022-11-04T17:48:05.378Z,5.68
2022-11-04T17:50:34.263Z,4.50
2022-11-04T17:53:02.305Z,5.05
2022-11-04T17:55:31.875Z,4.72
2022-11-04T17:58:00.059Z,5.20
2022-11-04T18:00:29.837Z,7.10
2022-11-04T18:02:58.223Z,8.52
2022-11-04T18:05:26.342Z,8.82
2022-11-04T18:07:56.544Z,9.40
2022-11-04T18:10:24.698Z,8.77
2022-11-04T18:12:54.331Z,8.82
2022-11-04T18:15:22.517Z,7.57
2022-11-04T18:17:52.720Z,7.82
2022-11-04T18:20:20.938Z,9.18
2022-11-04T18:22:49.207Z,7.60
2022-11-04T18:25:17.643Z,10.02
2022-11-04T18:27:49.023Z,9.68
2022-11-04T18:30:25.057Z,12.77
2022-11-04T18:32:53.128Z,12.80
2022-11-04T18:35:21.297Z,14.10
2022-11-04T18:37:49.312Z,14.20
2022-11-04T18:40:17.924Z,14.75
2022-11-04T18:42:46.261Z,14.48
2022-11-04T18:45:14.761Z,14.95
2022-11-04T18:47:44.593Z,15.68
2022-11-04T18:50:12.786Z,15.38
2022-11-04T18:52:40.822Z,15.93
2022-11-04T18:55:10.551Z,13.90
2022-11-04T18:57:38.911Z,15.02
2022-11-04T19:00:12.911Z,14.77
2022-11-04T19:02:45.584Z,14.68
2022-11-04T19:05:14.239Z,15.35
2022-11-04T19:07:42.404Z,15.23
2022-11-04T19:10:11.163Z,15.30
2022-11-04T19:12:56.402Z,13.95
2022-11-04T19:15:24.908Z,13.35
2022-11-04T19:17:54.761Z,14.05
2022-11-04T19:20:23.688Z,13.13
2022-11-04T19:22:51.812Z,15.23
2022-11-04T19:25:20.155Z,15.50
2022-11-04T19:28:05.202Z,15.85
2022-11-04T19:30:37.048Z,15.85
2022-11-04T19:33:06.854Z,16.05
2022-11-04T19:35:35.054Z,16.85
2022-11-04T19:38:03.386Z,17.27
2022-11-04T19:40:31.471Z,19.27
2022-11-04T19:43:10.191Z,20.83
2022-11-04T19:45:42.974Z,20.95
2022-11-04T19:48:13.458Z,20.17
2022-11-04T19:50:43.459Z,20.50
2022-11-04T19:53:12.123Z,19.92
2022-11-04T19:55:40.500Z,19.98
2022-11-04T19:58:08.738Z,19.20
2022-11-04T20:00:37.034Z,21.48
2022-11-04T20:03:05.191Z,19.65
2022-11-04T20:05:39.421Z,21.65
2022-11-04T20:08:08.105Z,19.80
2022-11-04T20:10:38.159Z,19.80
2022-11-04T20:13:23.784Z,18.25
2022-11-04T20:15:51.878Z,18.95
2022-11-04T20:18:21.142Z,18.13
2022-11-04T20:20:51.143Z,17.73
2022-11-04T20:23:19.171Z,17.95
2022-11-04T20:25:47.211Z,17.17
2022-11-04T20:28:15.349Z,17.40
2022-11-04T20:30:43.364Z,16.70
2022-11-04T20:33:11.349Z,15.88
2022-11-04T20:35:39.673Z,15.68
2022-11-04T20:38:10.180Z,16.30
2022-11-04T20:40:38.669Z,16.63
2022-11-04T20:43:06.657Z,16.15
2022-11-04T20:45:34.661Z,16.05
2022-11-04T20:48:02.676Z,15.88
2022-11-04T20:50:30.676Z,15.13
2022-11-04T20:52:58.750Z,14.60
2022-11-04T20:55:28.980Z,14.13
2022-11-04T20:57:56.983Z,15.18
2022-11-04T21:00:25.384Z,16.17
2022-11-04T21:02:53.424Z,16.02
2022-11-04T21:05:21.801Z,16.23
2022-11-04T21:07:50.145Z,16.27
2022-11-04T21:10:18.370Z,14.82
2022-11-04T21:12:48.080Z,12.57
2022-11-04T21:15:30.288Z,11.35
2022-11-04T21:17:58.328Z,10.55
2022-11-04T21:20:26.391Z,10.85
2022-11-04T21:22:54.381Z,11.70
2022-11-04T21:25:23.270Z,12.23
2022-11-04T21:27:52.990Z,12.05
2022-11-04T21:30:21.231Z,10.70
2022-11-04T21:32:49.259Z,11.07
2022-11-04T21:35:17.525Z,11.30
2022-11-04T21:37:45.692Z,10.70
2022-11-04T21:40:14.098Z,11.15
2022-11-04T21:42:42.098Z,11.35
2022-11-04T21:45:12.341Z,10.50
2022-11-04T21:47:40.392Z,12.80
2022-11-04T21:50:13.780Z,12.07
2022-11-04T21:52:45.579Z,13.07
2022-11-04T21:55:14.213Z,12.45
2022-11-04T21:57:42.331Z,13.18
2022-11-04T22:00:14.487Z,12.60
2022-11-04T22:02:47.876Z,13.02
2022-11-04T22:05:16.229Z,14.85
2022-11-04T22:08:02.009Z,13.45
2022-11-04T22:10:30.597Z,14.07
2022-11-04T22:12:58.709Z,14.48
2022-11-04T22:16:22.477Z,14.45
2022-11-04T22:18:54.951Z,13.90
2022-11-04T22:21:24.538Z,11.43
2022-11-04T22:23:52.806Z,11.52
2022-11-04T22:26:22.527Z,12.60
2022-11-04T22:28:50.892Z,12.40
2022-11-04T22:31:21.496Z,13.52
2022-11-04T22:33:50.936Z,11.82
2022-11-04T22:36:21.210Z,12.20
2022-11-04T22:38:49.296Z,10.85
2022-11-04T22:41:20.313Z,11.07
2022-11-04T22:43:48.444Z,10.75
2022-11-04T22:46:19.112Z,10.25
2022-11-04T22:48:47.339Z,10.60
2022-11-04T22:51:16.074Z,8.32
2022-11-04T22:53:48.070Z,10.02
2022-11-04T22:56:19.521Z,12.15
2022-11-04T22:58:47.553Z,11.50
2022-11-04T23:01:17.110Z,11.75
2022-11-04T23:03:45.394Z,10.80
2022-11-04T23:06:13.759Z,12.68
2022-11-04T23:08:42.376Z,13.93
2022-11-04T23:11:34.110Z,12.63
2022-11-04T23:14:21.040Z,11.25
2022-11-04T23:17:05.209Z,14.20
2022-11-04T23:19:33.625Z,12.73
2022-11-04T23:22:19.007Z,13.50
2022-11-04T23:25:04.435Z,14.37
2022-11-04T23:27:52.192Z,15.00
2022-11-04T23:30:25.412Z,12.32
2022-11-04T23:32:55.571Z,11.70
2022-11-04T23:35:42.182Z,12.05
2022-11-04T23:38:10.590Z,13.40
2022-11-04T23:40:39.471Z,11.20
2022-11-04T23:43:09.578Z,12.80
2022-11-04T23:46:03.825Z,12.80
2022-11-04T23:48:49.125Z,13.45
2022-11-04T23:51:34.451Z,13.87
2022-11-04T23:54:19.808Z,13.50
2022-11-04T23:57:07.620Z,13.60
2022-11-04T23:59:54.368Z,15.15
